createdAt,value
2017-09-28T00:00:22.508Z,0
2017-09-28T00:00:48.635Z,0
2017-09-28T00:01:14.756Z,0
2017-09-28T00:01:40.882Z,0
2017-09-28T00:02:07.011Z,0
2017-09-28T00:02:33.132Z,0
2017-09-28T00:02:59.251Z,0
2017-09-28T00:03:25.368Z,0
2017-09-28T00:03:51.490Z,0
2017-09-28T00:04:17.622Z,0
2017-09-28T00:04:43.747Z,0
2017-09-28T00:05:09.891Z,0
2017-09-28T00:05:36.013Z,0
2017-09-28T00:06:02.140Z,0
2017-09-28T00:06:28.266Z,0
2017-09-28T00:06:54.385Z,0
2017-09-28T00:07:20.503Z,0
2017-09-28T00:07:46.636Z,0
2017-09-28T00:08:12.754Z,0
2017-09-28T00:08:38.881Z,0
2017-09-28T00:09:04.999Z,0
2017-09-28T00:09:31.115Z,0
2017-09-28T00:09:57.247Z,0
2017-09-28T00:10:23.372Z,0
2017-09-28T00:10:49.491Z,0
2017-09-28T00:11:15.615Z,0
2017-09-28T00:11:41.763Z,0
2017-09-28T00:12:07.888Z,0
2017-09-28T00:12:34.033Z,0
2017-09-28T00:13:00.149Z,0
2017-09-28T00:13:26.278Z,0
2017-09-28T00:13:52.408Z,0
2017-09-28T00:14:18.534Z,0
2017-09-28T00:14:44.652Z,0
2017-09-28T00:15:10.777Z,0
2017-09-28T00:15:36.898Z,0
2017-09-28T00:16:03.022Z,0
2017-09-28T00:16:29.144Z,0
2017-09-28T00:16:55.262Z,0
2017-09-28T00:17:21.390Z,0
2017-09-28T00:17:47.510Z,0
2017-09-28T00:18:13.635Z,0
2017-09-28T00:18:39.762Z,0
2017-09-28T00:19:05.888Z,0
2017-09-28T00:19:32.012Z,0
2017-09-28T00:19:58.140Z,0
2017-09-28T00:20:24.260Z,0
2017-09-28T00:20:50.381Z,0
2017-09-28T00:21:16.505Z,0
2017-09-28T00:21:42.629Z,0
2017-09-28T00:22:08.753Z,0
2017-09-28T00:22:34.879Z,0
2017-09-28T00:23:01.001Z,0
2017-09-28T00:23:27.119Z,0
2017-09-28T00:23:53.246Z,0
2017-09-28T00:24:19.384Z,0
2017-09-28T00:24:45.512Z,0
2017-09-28T00:25:11.652Z,0
2017-09-28T00:25:37.781Z,0
2017-09-28T00:26:03.903Z,0
2017-09-28T00:26:30.020Z,0
2017-09-28T00:26:56.147Z,0
2017-09-28T00:27:22.273Z,0
2017-09-28T00:27:48.394Z,0
2017-09-28T00:28:14.513Z,0
2017-09-28T00:28:40.641Z,0
2017-09-28T00:29:06.765Z,0
2017-09-28T00:29:32.883Z,0
2017-09-28T00:29:59.007Z,0
2017-09-28T00:30:25.134Z,0
2017-09-28T00:30:51.252Z,0
2017-09-28T00:31:17.381Z,0
2017-09-28T00:31:43.503Z,0
2017-09-28T00:32:09.623Z,0
2017-09-28T00:32:35.754Z,0
2017-09-28T00:33:01.872Z,0
2017-09-28T00:33:27.989Z,0
2017-09-28T00:33:54.119Z,0
2017-09-28T00:34:20.241Z,0
2017-09-28T00:34:46.369Z,0
2017-09-28T00:35:12.488Z,0
2017-09-28T00:35:38.616Z,0
2017-09-28T00:36:04.734Z,0
2017-09-28T00:36:30.858Z,0
2017-09-28T00:36:56.988Z,0
2017-09-28T00:37:23.106Z,0
2017-09-28T00:37:49.235Z,0
2017-09-28T00:38:15.357Z,0
2017-09-28T00:38:41.479Z,0
2017-09-28T00:39:07.603Z,0
2017-09-28T00:39:33.726Z,0
2017-09-28T00:39:59.854Z,0
2017-09-28T00:40:25.972Z,0
2017-09-28T00:40:52.106Z,0
2017-09-28T00:41:18.250Z,0
2017-09-28T00:41:44.367Z,0
2017-09-28T00:42:10.494Z,0
2017-09-28T00:42:36.615Z,0
2017-09-28T00:43:02.736Z,0
2017-09-28T00:43:28.860Z,0
2017-09-28T00:43:54.988Z,0
2017-09-28T00:44:21.107Z,0
2017-09-28T00:44:47.228Z,0
2017-09-28T00:45:13.357Z,0
2017-09-28T00:45:39.474Z,0
2017-09-28T00:46:05.599Z,0
2017-09-28T00:46:31.726Z,0
2017-09-28T00:46:57.840Z,0
2017-09-28T00:47:23.978Z,0
2017-09-28T00:47:50.106Z,0
2017-09-28T00:48:16.232Z,0
2017-09-28T00:48:42.361Z,0
2017-09-28T00:49:08.482Z,0
2017-09-28T00:49:34.609Z,0
2017-09-28T00:50:00.735Z,0
2017-09-28T00:50:26.854Z,0
2017-09-28T00:50:52.978Z,0
2017-09-28T00:51:19.093Z,0
2017-09-28T00:51:45.225Z,0
2017-09-28T00:52:11.364Z,0
2017-09-28T00:52:37.495Z,0
2017-09-28T00:53:03.621Z,0
2017-09-28T00:53:29.741Z,0
2017-09-28T00:53:55.872Z,0
2017-09-28T00:54:21.988Z,0
2017-09-28T00:54:48.117Z,0
2017-09-28T00:55:14.241Z,0
2017-09-28T00:55:40.362Z,0
2017-09-28T00:56:06.489Z,0
2017-09-28T00:56:32.608Z,0
2017-09-28T00:56:58.728Z,0
2017-09-28T00:57:24.852Z,0
2017-09-28T00:57:50.970Z,0
2017-09-28T00:58:17.097Z,0
2017-09-28T00:58:43.237Z,0
2017-09-28T00:59:09.365Z,0
2017-09-28T00:59:35.490Z,0
2017-09-28T01:00:01.610Z,0
2017-09-28T01:00:27.761Z,0
2017-09-28T01:00:53.883Z,0
2017-09-28T01:01:20.010Z,0
2017-09-28T01:01:46.129Z,0
2017-09-28T01:02:12.280Z,0
2017-09-28T01:02:38.398Z,0
2017-09-28T01:03:04.521Z,0
2017-09-28T01:03:30.670Z,0
2017-09-28T01:03:56.795Z,0
2017-09-28T01:04:22.918Z,0
2017-09-28T01:04:49.046Z,0
2017-09-28T01:05:15.161Z,0
2017-09-28T01:05:41.281Z,0
2017-09-28T01:06:07.410Z,0
2017-09-28T01:06:33.527Z,0
2017-09-28T01:06:59.652Z,0
2017-09-28T01:07:25.779Z,0
2017-09-28T01:07:51.898Z,0
2017-09-28T01:08:18.020Z,0
2017-09-28T01:08:44.150Z,0
2017-09-28T01:09:10.274Z,0
2017-09-28T01:09:36.396Z,0
2017-09-28T01:10:02.520Z,0
2017-09-28T01:10:28.640Z,0
2017-09-28T01:10:54.761Z,0
2017-09-28T01:11:20.888Z,0
2017-09-28T01:11:47.018Z,0
2017-09-28T01:12:13.136Z,0
2017-09-28T01:12:39.262Z,0
2017-09-28T01:13:05.387Z,0
2017-09-28T01:13:31.504Z,0
2017-09-28T01:13:57.632Z,0
2017-09-28T01:14:23.777Z,0
2017-09-28T01:14:49.893Z,0
2017-09-28T01:15:16.043Z,0
2017-09-28T01:15:42.163Z,0
2017-09-28T01:16:08.285Z,0
2017-09-28T01:16:34.411Z,0
2017-09-28T01:17:00.526Z,0
2017-09-28T01:17:26.671Z,0
2017-09-28T01:17:52.801Z,0
2017-09-28T01:18:18.922Z,0
2017-09-28T01:18:45.046Z,0
2017-09-28T01:19:11.174Z,0
2017-09-28T01:19:37.293Z,0
2017-09-28T01:20:03.422Z,0
2017-09-28T01:20:29.539Z,0
2017-09-28T01:20:55.666Z,0
2017-09-28T01:21:21.790Z,0
2017-09-28T01:21:47.911Z,0
2017-09-28T01:22:14.032Z,0
2017-09-28T01:22:40.180Z,0
2017-09-28T01:23:06.306Z,0
2017-09-28T01:23:32.426Z,0
2017-09-28T01:23:58.592Z,0
2017-09-28T01:24:24.696Z,0
2017-09-28T01:24:50.818Z,0
2017-09-28T01:25:16.943Z,0
2017-09-28T01:25:43.064Z,0
2017-09-28T01:26:09.191Z,0
2017-09-28T01:26:35.332Z,0
2017-09-28T01:27:01.460Z,0
2017-09-28T01:27:27.584Z,0
2017-09-28T01:27:53.706Z,0
2017-09-28T01:28:19.844Z,0
2017-09-28T01:28:45.967Z,0
2017-09-28T01:29:12.107Z,0
2017-09-28T01:29:38.234Z,0
2017-09-28T01:30:04.353Z,0
2017-09-28T01:30:30.481Z,0
2017-09-28T01:30:56.598Z,0
2017-09-28T01:31:22.724Z,0
2017-09-28T01:31:48.848Z,0
2017-09-28T01:32:14.973Z,0
2017-09-28T01:32:41.097Z,0
2017-09-28T01:33:07.223Z,0
2017-09-28T01:33:33.346Z,0
2017-09-28T01:33:59.470Z,0
2017-09-28T01:34:25.591Z,0
2017-09-28T01:34:51.714Z,0
2017-09-28T01:35:17.840Z,0
2017-09-28T01:35:43.963Z,0
2017-09-28T01:36:10.118Z,0
2017-09-28T01:36:36.237Z,0
2017-09-28T01:37:02.363Z,0
2017-09-28T01:37:28.481Z,0
2017-09-28T01:37:54.603Z,0
2017-09-28T01:38:20.734Z,0
2017-09-28T01:38:46.852Z,0
2017-09-28T01:39:12.973Z,0
2017-09-28T01:39:39.096Z,0
2017-09-28T01:40:05.224Z,0
2017-09-28T01:40:31.339Z,0
2017-09-28T01:40:57.460Z,0
2017-09-28T01:41:23.588Z,0
2017-09-28T01:41:49.706Z,0
2017-09-28T01:42:15.826Z,0
2017-09-28T01:42:41.957Z,0
2017-09-28T01:43:08.080Z,0
2017-09-28T01:43:34.207Z,0
2017-09-28T01:44:00.325Z,0
2017-09-28T01:44:26.452Z,0
2017-09-28T01:44:52.576Z,0
2017-09-28T01:45:18.695Z,0
2017-09-28T01:45:44.838Z,0
2017-09-28T01:46:10.967Z,0
2017-09-28T01:46:37.090Z,0
2017-09-28T01:47:03.210Z,0
2017-09-28T01:47:29.332Z,0
2017-09-28T01:47:55.459Z,0
2017-09-28T01:48:21.583Z,0
2017-09-28T01:48:47.703Z,0
2017-09-28T01:49:13.828Z,0
2017-09-28T01:49:39.950Z,0
2017-09-28T01:50:06.078Z,0
2017-09-28T01:50:32.195Z,0
2017-09-28T01:50:58.342Z,0
2017-09-28T01:51:24.460Z,0
2017-09-28T01:51:50.583Z,0
2017-09-28T01:52:16.710Z,0
2017-09-28T01:52:42.829Z,0
2017-09-28T01:53:08.958Z,0
2017-09-28T01:53:35.079Z,0
2017-09-28T01:54:01.206Z,0
2017-09-28T01:54:27.326Z,0
2017-09-28T01:54:53.447Z,0
2017-09-28T01:55:19.569Z,0
2017-09-28T01:55:45.698Z,0
2017-09-28T01:56:11.824Z,0
2017-09-28T01:56:37.949Z,0
2017-09-28T01:57:04.089Z,0
2017-09-28T01:57:30.216Z,0
2017-09-28T01:57:56.338Z,0
2017-09-28T01:58:22.455Z,0
2017-09-28T01:58:48.579Z,0
2017-09-28T01:59:14.702Z,0
2017-09-28T01:59:40.827Z,0
2017-09-28T02:00:06.944Z,0
2017-09-28T02:00:33.074Z,0
2017-09-28T02:00:59.194Z,0
2017-09-28T02:01:25.325Z,0
2017-09-28T02:01:51.447Z,0
2017-09-28T02:02:17.573Z,0
2017-09-28T02:02:43.689Z,0
2017-09-28T02:03:09.811Z,0
2017-09-28T02:03:35.936Z,0
2017-09-28T02:04:02.059Z,0
2017-09-28T02:04:28.177Z,0
2017-09-28T02:04:54.304Z,0
2017-09-28T02:05:20.424Z,0
2017-09-28T02:05:46.547Z,0
2017-09-28T02:06:12.674Z,0
2017-09-28T02:06:38.791Z,0
2017-09-28T02:07:04.920Z,0
2017-09-28T02:07:31.043Z,0
2017-09-28T02:07:57.161Z,0
2017-09-28T02:08:23.286Z,0
2017-09-28T02:08:49.403Z,0
2017-09-28T02:09:15.525Z,0
2017-09-28T02:09:41.648Z,0
2017-09-28T02:10:07.778Z,0
2017-09-28T02:10:33.901Z,0
2017-09-28T02:11:00.019Z,0
2017-09-28T02:11:26.146Z,0
2017-09-28T02:11:52.269Z,0
2017-09-28T02:12:18.388Z,0
2017-09-28T02:12:44.543Z,0
2017-09-28T02:13:10.638Z,0
2017-09-28T02:13:36.754Z,0
2017-09-28T02:14:02.877Z,0
2017-09-28T02:14:29.004Z,0
2017-09-28T02:14:55.123Z,0
2017-09-28T02:15:21.253Z,0
2017-09-28T02:15:47.380Z,0
2017-09-28T02:16:13.509Z,0
2017-09-28T02:16:39.644Z,0
2017-09-28T02:17:05.767Z,0
2017-09-28T02:17:31.888Z,0
2017-09-28T02:17:58.006Z,0
2017-09-28T02:18:24.130Z,0
2017-09-28T02:18:50.263Z,0
2017-09-28T02:19:16.379Z,0
2017-09-28T02:19:42.508Z,0
2017-09-28T02:20:08.623Z,0
2017-09-28T02:20:34.746Z,0
2017-09-28T02:21:00.881Z,0
2017-09-28T02:21:27.006Z,0
2017-09-28T02:21:53.153Z,0
2017-09-28T02:22:19.263Z,0
2017-09-28T02:22:45.425Z,0
2017-09-28T02:23:11.554Z,0
2017-09-28T02:23:37.668Z,0
2017-09-28T02:24:03.794Z,0
2017-09-28T02:24:29.919Z,0
2017-09-28T02:24:56.045Z,0
2017-09-28T02:25:22.167Z,0
2017-09-28T02:25:48.292Z,0
2017-09-28T02:26:14.409Z,0
2017-09-28T02:26:40.530Z,0
2017-09-28T02:27:06.654Z,0
2017-09-28T02:27:32.773Z,0
2017-09-28T02:27:58.902Z,0
2017-09-28T02:28:25.021Z,0
2017-09-28T02:28:51.146Z,0
2017-09-28T02:29:17.265Z,0
2017-09-28T02:29:43.392Z,0
2017-09-28T02:30:09.518Z,0
2017-09-28T02:30:35.639Z,0
2017-09-28T02:31:01.783Z,0
2017-09-28T02:31:27.907Z,0
2017-09-28T02:31:54.033Z,0
2017-09-28T02:32:20.150Z,0
2017-09-28T02:32:46.270Z,0
2017-09-28T02:33:12.398Z,0
2017-09-28T02:33:38.516Z,0
2017-09-28T02:34:04.645Z,0
2017-09-28T02:34:30.772Z,0
2017-09-28T02:34:56.891Z,0
2017-09-28T02:35:23.021Z,0
2017-09-28T02:35:49.138Z,0
2017-09-28T02:36:15.259Z,0
2017-09-28T02:36:41.387Z,0
2017-09-28T02:37:07.508Z,0
2017-09-28T02:37:33.635Z,0
2017-09-28T02:37:59.753Z,0
2017-09-28T02:38:25.889Z,0
2017-09-28T02:38:52.004Z,0
2017-09-28T02:39:18.135Z,0
2017-09-28T02:39:44.253Z,0
2017-09-28T02:40:10.380Z,0
2017-09-28T02:40:36.505Z,0
2017-09-28T02:41:02.631Z,0
2017-09-28T02:41:28.758Z,0
2017-09-28T02:41:54.878Z,0
2017-09-28T02:42:21.006Z,0
2017-09-28T02:42:47.120Z,0
2017-09-28T02:43:13.244Z,0
2017-09-28T02:43:39.362Z,0
2017-09-28T02:44:05.487Z,0
2017-09-28T02:44:31.608Z,0
2017-09-28T02:44:57.729Z,0
2017-09-28T02:45:23.867Z,0
2017-09-28T02:45:50.006Z,0
2017-09-28T02:46:16.125Z,0
2017-09-28T02:46:42.253Z,0
2017-09-28T02:47:08.382Z,0
2017-09-28T02:47:34.505Z,0
2017-09-28T02:48:00.626Z,0
2017-09-28T02:48:26.746Z,0
2017-09-28T02:48:52.863Z,0
2017-09-28T02:49:18.992Z,0
2017-09-28T02:49:45.113Z,0
2017-09-28T02:50:11.233Z,0
2017-09-28T02:50:37.361Z,0
2017-09-28T02:51:03.480Z,0
2017-09-28T02:51:29.606Z,0
2017-09-28T02:51:55.727Z,0
2017-09-28T02:52:21.855Z,0
2017-09-28T02:52:47.973Z,0
2017-09-28T02:53:14.100Z,0
2017-09-28T02:53:40.225Z,0
2017-09-28T02:54:06.343Z,0
2017-09-28T02:54:32.471Z,0
2017-09-28T02:54:58.590Z,0
2017-09-28T02:55:24.718Z,0
2017-09-28T02:55:50.836Z,0
2017-09-28T02:56:16.957Z,0
2017-09-28T02:56:43.086Z,0
2017-09-28T02:57:09.205Z,0
2017-09-28T02:57:35.332Z,0
2017-09-28T02:58:01.456Z,0
2017-09-28T02:58:27.576Z,0
2017-09-28T02:58:53.696Z,0
2017-09-28T02:59:19.819Z,0
2017-09-28T02:59:45.950Z,0
2017-09-28T03:00:12.069Z,0
2017-09-28T03:00:38.194Z,0
2017-09-28T03:01:04.322Z,0
2017-09-28T03:01:30.439Z,0
2017-09-28T03:01:56.564Z,0
2017-09-28T03:02:22.691Z,0
2017-09-28T03:02:48.806Z,0
2017-09-28T03:03:14.955Z,0
2017-09-28T03:03:41.073Z,0
2017-09-28T03:04:07.194Z,0
2017-09-28T03:04:33.323Z,0
2017-09-28T03:04:59.445Z,0
2017-09-28T03:05:25.569Z,0
2017-09-28T03:05:51.694Z,0
2017-09-28T03:06:17.820Z,0
2017-09-28T03:06:43.949Z,0
2017-09-28T03:07:10.068Z,0
2017-09-28T03:07:36.209Z,0
2017-09-28T03:08:02.332Z,0
2017-09-28T03:08:28.452Z,0
2017-09-28T03:08:54.577Z,0
2017-09-28T03:09:20.700Z,0
2017-09-28T03:09:46.822Z,0
2017-09-28T03:10:12.943Z,0
2017-09-28T03:10:39.073Z,0
2017-09-28T03:11:05.188Z,0
2017-09-28T03:11:31.317Z,0
2017-09-28T03:11:57.437Z,0
2017-09-28T03:12:23.584Z,0
2017-09-28T03:12:49.702Z,0
2017-09-28T03:13:15.855Z,0
2017-09-28T03:13:41.983Z,0
2017-09-28T03:14:08.098Z,0
2017-09-28T03:14:34.225Z,0
2017-09-28T03:15:00.337Z,0
2017-09-28T03:15:26.469Z,0
2017-09-28T03:15:52.590Z,0
2017-09-28T03:16:18.712Z,0
2017-09-28T03:16:44.837Z,0
2017-09-28T03:17:10.962Z,0
2017-09-28T03:17:37.087Z,0
2017-09-28T03:18:03.208Z,0
2017-09-28T03:18:29.337Z,0
2017-09-28T03:18:55.460Z,0
2017-09-28T03:19:21.575Z,0
2017-09-28T03:19:47.703Z,0
2017-09-28T03:20:13.820Z,0
2017-09-28T03:20:39.948Z,0
2017-09-28T03:21:06.068Z,0
2017-09-28T03:21:32.201Z,0
2017-09-28T03:21:58.316Z,0
2017-09-28T03:22:24.438Z,0
2017-09-28T03:22:50.566Z,0
2017-09-28T03:23:16.691Z,0
2017-09-28T03:23:42.833Z,0
2017-09-28T03:24:08.952Z,0
2017-09-28T03:24:35.080Z,0
2017-09-28T03:25:01.229Z,0
2017-09-28T03:25:27.347Z,0
2017-09-28T03:25:53.475Z,0
2017-09-28T03:26:19.598Z,0
2017-09-28T03:26:45.727Z,0
2017-09-28T03:27:11.843Z,0
2017-09-28T03:27:37.964Z,0
2017-09-28T03:28:04.093Z,0
2017-09-28T03:28:30.211Z,0
2017-09-28T03:28:56.339Z,0
2017-09-28T03:29:22.460Z,0
2017-09-28T03:29:48.585Z,0
2017-09-28T03:30:14.712Z,0
2017-09-28T03:30:40.834Z,0
2017-09-28T03:31:06.950Z,0
2017-09-28T03:31:33.078Z,0
2017-09-28T03:31:59.205Z,0
2017-09-28T03:32:25.323Z,0
2017-09-28T03:32:51.451Z,0
2017-09-28T03:33:17.569Z,0
2017-09-28T03:33:43.695Z,0
2017-09-28T03:34:09.815Z,0
2017-09-28T03:34:35.946Z,0
2017-09-28T03:35:02.064Z,0
2017-09-28T03:35:28.197Z,0
2017-09-28T03:35:54.314Z,0
2017-09-28T03:36:20.441Z,0
2017-09-28T03:36:46.588Z,0
2017-09-28T03:37:12.712Z,0
2017-09-28T03:37:38.838Z,0
2017-09-28T03:38:04.956Z,0
2017-09-28T03:38:31.077Z,0
2017-09-28T03:38:57.224Z,0
2017-09-28T03:39:23.329Z,0
2017-09-28T03:39:49.452Z,0
2017-09-28T03:40:15.569Z,0
2017-09-28T03:40:41.688Z,0
2017-09-28T03:41:07.814Z,0
2017-09-28T03:41:33.945Z,0
2017-09-28T03:42:00.063Z,0
2017-09-28T03:42:26.184Z,0
2017-09-28T03:42:52.311Z,0
2017-09-28T03:43:18.450Z,0
2017-09-28T03:43:44.573Z,0
2017-09-28T03:44:10.707Z,0
2017-09-28T03:44:36.824Z,0
2017-09-28T03:45:02.945Z,0
2017-09-28T03:45:29.074Z,0
2017-09-28T03:45:55.200Z,0
2017-09-28T03:46:21.318Z,0
2017-09-28T03:46:47.447Z,0
2017-09-28T03:47:13.566Z,0
2017-09-28T03:47:39.692Z,0
2017-09-28T03:48:05.816Z,0
2017-09-28T03:48:31.936Z,0
2017-09-28T03:48:58.062Z,0
2017-09-28T03:49:24.189Z,0
2017-09-28T03:49:50.308Z,0
2017-09-28T03:50:16.435Z,0
2017-09-28T03:50:42.554Z,0
2017-09-28T03:51:08.683Z,0
2017-09-28T03:51:34.801Z,0
2017-09-28T03:52:00.922Z,0
2017-09-28T03:52:27.050Z,0
2017-09-28T03:52:53.174Z,0
2017-09-28T03:53:19.293Z,0
2017-09-28T03:53:45.415Z,0
2017-09-28T03:54:11.545Z,0
2017-09-28T03:54:37.662Z,0
2017-09-28T03:55:03.789Z,0
2017-09-28T03:55:29.909Z,0
2017-09-28T03:55:56.033Z,0
2017-09-28T03:56:22.153Z,0
2017-09-28T03:56:48.283Z,0
2017-09-28T03:57:14.407Z,0
2017-09-28T03:57:40.535Z,0
2017-09-28T03:58:06.653Z,0
2017-09-28T03:58:32.776Z,0
2017-09-28T03:58:58.900Z,0
2017-09-28T03:59:25.019Z,0
2017-09-28T03:59:51.147Z,0
2017-09-28T04:00:17.265Z,0
2017-09-28T04:00:43.416Z,0
2017-09-28T04:01:09.542Z,0
2017-09-28T04:01:35.666Z,0
2017-09-28T04:02:01.792Z,0
2017-09-28T04:02:27.928Z,0
2017-09-28T04:02:54.046Z,0
2017-09-28T04:03:20.167Z,0
2017-09-28T04:03:46.317Z,0
2017-09-28T04:04:12.438Z,0
2017-09-28T04:04:38.560Z,0
2017-09-28T04:05:04.687Z,0
2017-09-28T04:05:30.802Z,0
2017-09-28T04:05:56.936Z,0
2017-09-28T04:06:23.055Z,0
2017-09-28T04:06:49.183Z,0
2017-09-28T04:07:15.301Z,0
2017-09-28T04:07:41.421Z,0
2017-09-28T04:08:07.548Z,0
2017-09-28T04:08:33.672Z,0
2017-09-28T04:08:59.797Z,0
2017-09-28T04:09:25.943Z,0
2017-09-28T04:09:52.082Z,0
2017-09-28T04:10:18.208Z,0
2017-09-28T04:10:44.326Z,0
2017-09-28T04:11:10.450Z,0
2017-09-28T04:11:36.624Z,0
2017-09-28T04:12:02.752Z,0
2017-09-28T04:12:28.872Z,0
2017-09-28T04:12:54.988Z,0
2017-09-28T04:13:21.115Z,0
2017-09-28T04:13:47.240Z,0
2017-09-28T04:14:13.360Z,0
2017-09-28T04:14:39.481Z,0
2017-09-28T04:15:05.608Z,0
2017-09-28T04:15:31.731Z,0
2017-09-28T04:15:57.867Z,0
2017-09-28T04:16:23.995Z,0
2017-09-28T04:16:50.113Z,0
2017-09-28T04:17:16.242Z,0
2017-09-28T04:17:42.362Z,0
2017-09-28T04:18:08.486Z,0
2017-09-28T04:18:34.637Z,0
2017-09-28T04:19:00.759Z,0
2017-09-28T04:19:26.882Z,0
2017-09-28T04:19:53.008Z,0
2017-09-28T04:20:19.126Z,0
2017-09-28T04:20:45.254Z,0
2017-09-28T04:21:11.379Z,0
2017-09-28T04:21:37.507Z,0
2017-09-28T04:22:03.629Z,0
2017-09-28T04:22:29.744Z,0
2017-09-28T04:22:55.872Z,0
2017-09-28T04:23:21.990Z,0
2017-09-28T04:23:48.112Z,0
2017-09-28T04:24:14.258Z,0
2017-09-28T04:24:40.397Z,0
2017-09-28T04:25:06.523Z,0
2017-09-28T04:25:32.642Z,0
2017-09-28T04:25:58.762Z,0
2017-09-28T04:26:24.892Z,0
2017-09-28T04:26:51.015Z,0
2017-09-28T04:27:17.134Z,0
2017-09-28T04:27:43.261Z,0
2017-09-28T04:28:09.407Z,0
2017-09-28T04:28:35.530Z,0
2017-09-28T04:29:01.662Z,0
2017-09-28T04:29:27.786Z,0
2017-09-28T04:29:53.904Z,0
2017-09-28T04:30:20.031Z,0
2017-09-28T04:30:46.149Z,0
2017-09-28T04:31:12.277Z,0
2017-09-28T04:31:38.394Z,0
2017-09-28T04:32:04.535Z,0
2017-09-28T04:32:30.665Z,0
2017-09-28T04:32:56.791Z,0
2017-09-28T04:33:22.909Z,0
2017-09-28T04:33:49.029Z,0
2017-09-28T04:34:15.157Z,0
2017-09-28T04:34:41.281Z,0
2017-09-28T04:35:07.400Z,0
2017-09-28T04:35:33.529Z,0
2017-09-28T04:35:59.650Z,0
2017-09-28T04:36:25.774Z,0
2017-09-28T04:36:51.892Z,0
2017-09-28T04:37:18.012Z,0
2017-09-28T04:37:44.141Z,0
2017-09-28T04:38:10.287Z,0
2017-09-28T04:38:36.407Z,0
2017-09-28T04:39:02.528Z,0
2017-09-28T04:39:28.657Z,0
2017-09-28T04:39:54.777Z,0
2017-09-28T04:40:20.910Z,0
2017-09-28T04:40:47.034Z,0
2017-09-28T04:41:13.151Z,0
2017-09-28T04:41:39.281Z,0
2017-09-28T04:42:05.398Z,0
2017-09-28T04:42:31.522Z,0
2017-09-28T04:42:57.669Z,0
2017-09-28T04:43:23.795Z,0
2017-09-28T04:43:49.913Z,0
2017-09-28T04:44:16.033Z,0
2017-09-28T04:44:42.151Z,0
2017-09-28T04:45:08.273Z,0
2017-09-28T04:45:34.400Z,0
2017-09-28T04:46:00.525Z,0
2017-09-28T04:46:26.656Z,0
2017-09-28T04:46:52.773Z,0
2017-09-28T04:47:18.896Z,0
2017-09-28T04:47:45.023Z,0
2017-09-28T04:48:11.142Z,0
2017-09-28T04:48:37.273Z,0
2017-09-28T04:49:03.393Z,0
2017-09-28T04:49:29.520Z,0
2017-09-28T04:49:55.641Z,0
2017-09-28T04:50:21.751Z,0
2017-09-28T04:50:47.876Z,0
2017-09-28T04:51:14.000Z,0
2017-09-28T04:51:40.128Z,0
2017-09-28T04:52:06.245Z,0
2017-09-28T04:52:32.402Z,0
2017-09-28T04:52:58.489Z,0
2017-09-28T04:53:24.618Z,0
2017-09-28T04:53:50.745Z,0
2017-09-28T04:54:16.864Z,0
2017-09-28T04:54:42.985Z,0
2017-09-28T04:55:09.116Z,4
2017-09-28T04:55:35.239Z,4
2017-09-28T04:56:01.374Z,4
2017-09-28T04:56:27.504Z,4
2017-09-28T04:56:53.624Z,4
2017-09-28T04:57:19.742Z,4
2017-09-28T04:57:45.869Z,0
2017-09-28T04:58:11.989Z,0
2017-09-28T04:58:38.162Z,4
2017-09-28T04:59:04.279Z,4
2017-09-28T04:59:30.407Z,4
2017-09-28T04:59:56.525Z,4
2017-09-28T05:00:22.654Z,4
2017-09-28T05:00:48.775Z,8
2017-09-28T05:01:14.900Z,4
2017-09-28T05:01:41.020Z,4
2017-09-28T05:02:07.148Z,4
2017-09-28T05:02:33.261Z,8
2017-09-28T05:02:59.394Z,8
2017-09-28T05:03:25.521Z,4
2017-09-28T05:03:51.636Z,8
2017-09-28T05:04:17.778Z,8
2017-09-28T05:04:43.900Z,8
2017-09-28T05:05:10.025Z,8
2017-09-28T05:05:36.156Z,12
2017-09-28T05:06:02.273Z,12
2017-09-28T05:06:28.402Z,12
2017-09-28T05:06:54.522Z,12
2017-09-28T05:07:20.646Z,16
2017-09-28T05:07:46.774Z,12
2017-09-28T05:08:12.898Z,12
2017-09-28T05:08:39.016Z,16
2017-09-28T05:09:05.162Z,16
2017-09-28T05:09:31.280Z,16
2017-09-28T05:09:57.406Z,16
2017-09-28T05:10:23.524Z,24
2017-09-28T05:10:49.647Z,24
2017-09-28T05:11:15.784Z,24
2017-09-28T05:11:41.903Z,24
2017-09-28T05:12:08.023Z,28
2017-09-28T05:12:34.146Z,28
2017-09-28T05:13:00.275Z,28
2017-09-28T05:13:26.395Z,32
2017-09-28T05:13:52.516Z,32
2017-09-28T05:14:18.643Z,32
2017-09-28T05:14:44.764Z,36
2017-09-28T05:15:10.886Z,36
2017-09-28T05:15:37.007Z,40
2017-09-28T05:16:03.134Z,40
2017-09-28T05:16:29.253Z,40
2017-09-28T05:16:55.382Z,44
2017-09-28T05:17:21.530Z,48
2017-09-28T05:17:47.652Z,48
2017-09-28T05:18:13.779Z,52
2017-09-28T05:18:39.901Z,52
2017-09-28T05:19:06.023Z,56
2017-09-28T05:19:32.165Z,60
2017-09-28T05:19:58.294Z,64
2017-09-28T05:20:24.432Z,64
2017-09-28T05:20:50.560Z,68
2017-09-28T05:21:16.680Z,76
2017-09-28T05:21:42.808Z,76
2017-09-28T05:22:08.930Z,80
2017-09-28T05:22:35.046Z,84
2017-09-28T05:23:01.174Z,92
2017-09-28T05:23:27.300Z,92
2017-09-28T05:23:53.418Z,100
2017-09-28T05:24:19.539Z,108
2017-09-28T05:24:45.664Z,108
2017-09-28T05:25:11.792Z,116
2017-09-28T05:25:37.918Z,124
2017-09-28T05:26:04.038Z,128
2017-09-28T05:26:30.167Z,132
2017-09-28T05:26:56.285Z,140
2017-09-28T05:27:22.416Z,148
2017-09-28T05:27:48.533Z,156
2017-09-28T05:28:14.663Z,160
2017-09-28T05:28:40.783Z,168
2017-09-28T05:29:06.909Z,176
2017-09-28T05:29:33.051Z,180
2017-09-28T05:29:59.177Z,188
2017-09-28T05:30:25.292Z,196
2017-09-28T05:30:51.441Z,204
2017-09-28T05:31:17.563Z,212
2017-09-28T05:31:43.691Z,216
2017-09-28T05:32:09.822Z,224
2017-09-28T05:32:35.943Z,228
2017-09-28T05:33:02.092Z,232
2017-09-28T05:33:28.209Z,236
2017-09-28T05:33:54.328Z,240
2017-09-28T05:34:20.459Z,244
2017-09-28T05:34:46.578Z,252
2017-09-28T05:35:12.701Z,256
2017-09-28T05:35:38.819Z,264
2017-09-28T05:36:04.946Z,268
2017-09-28T05:36:31.065Z,276
2017-09-28T05:36:57.192Z,288
2017-09-28T05:37:23.316Z,296
2017-09-28T05:37:49.434Z,308
2017-09-28T05:38:15.556Z,312
2017-09-28T05:38:41.685Z,324
2017-09-28T05:39:07.812Z,336
2017-09-28T05:39:33.929Z,344
2017-09-28T05:40:00.056Z,356
2017-09-28T05:40:26.194Z,364
2017-09-28T05:40:52.323Z,372
2017-09-28T05:41:18.440Z,380
2017-09-28T05:41:44.567Z,388
2017-09-28T05:42:10.689Z,392
2017-09-28T05:42:36.808Z,396
2017-09-28T05:43:02.936Z,392
2017-09-28T05:43:29.052Z,396
2017-09-28T05:43:55.180Z,400
2017-09-28T05:44:21.317Z,400
2017-09-28T05:44:47.443Z,400
2017-09-28T05:45:13.561Z,400
2017-09-28T05:45:39.689Z,404
2017-09-28T05:46:05.814Z,400
2017-09-28T05:46:31.933Z,400
2017-09-28T05:46:58.060Z,396
2017-09-28T05:47:24.180Z,396
2017-09-28T05:47:50.299Z,396
2017-09-28T05:48:16.434Z,392
2017-09-28T05:48:42.551Z,388
2017-09-28T05:49:08.707Z,392
2017-09-28T05:49:34.829Z,388
2017-09-28T05:50:00.952Z,388
2017-09-28T05:50:27.077Z,388
2017-09-28T05:50:53.203Z,388
2017-09-28T05:51:19.333Z,388
2017-09-28T05:51:45.453Z,388
2017-09-28T05:52:11.578Z,392
2017-09-28T05:52:37.705Z,392
2017-09-28T05:53:03.881Z,396
2017-09-28T05:53:29.999Z,396
2017-09-28T05:53:56.120Z,396
2017-09-28T05:54:22.255Z,400
2017-09-28T05:54:48.378Z,408
2017-09-28T05:55:14.494Z,408
2017-09-28T05:55:40.624Z,412
2017-09-28T05:56:06.748Z,416
2017-09-28T05:56:32.875Z,416
2017-09-28T05:56:58.998Z,420
2017-09-28T05:57:25.146Z,424
2017-09-28T05:57:51.239Z,424
2017-09-28T05:58:17.367Z,428
2017-09-28T05:58:43.495Z,432
2017-09-28T05:59:09.613Z,432
2017-09-28T05:59:35.741Z,436
2017-09-28T06:00:01.866Z,440
2017-09-28T06:00:27.986Z,444
2017-09-28T06:00:54.120Z,444
2017-09-28T06:01:20.235Z,452
2017-09-28T06:01:46.357Z,456
2017-09-28T06:02:12.517Z,464
2017-09-28T06:02:38.604Z,468
2017-09-28T06:03:04.732Z,472
2017-09-28T06:03:30.856Z,484
2017-09-28T06:03:57.000Z,492
2017-09-28T06:04:23.122Z,504
2017-09-28T06:04:49.249Z,516
2017-09-28T06:05:15.373Z,528
2017-09-28T06:05:41.494Z,544
2017-09-28T06:06:07.623Z,560
2017-09-28T06:06:33.745Z,580
2017-09-28T06:06:59.865Z,604
2017-09-28T06:07:25.992Z,624
2017-09-28T06:07:52.114Z,652
2017-09-28T06:08:18.243Z,680
2017-09-28T06:08:44.370Z,716
2017-09-28T06:09:10.490Z,748
2017-09-28T06:09:36.611Z,792
2017-09-28T06:10:02.740Z,832
2017-09-28T06:10:28.864Z,880
2017-09-28T06:10:54.987Z,928
2017-09-28T06:11:21.134Z,984
2017-09-28T06:11:47.254Z,1044
2017-09-28T06:12:13.383Z,1112
2017-09-28T06:12:39.504Z,1184
2017-09-28T06:13:05.632Z,1272
2017-09-28T06:13:31.755Z,1376
2017-09-28T06:13:57.873Z,1492
2017-09-28T06:14:24.000Z,1616
2017-09-28T06:14:50.121Z,1724
2017-09-28T06:15:16.246Z,1820
2017-09-28T06:15:42.365Z,1896
2017-09-28T06:16:08.496Z,1960
2017-09-28T06:16:34.620Z,2008
2017-09-28T06:17:00.758Z,2040
2017-09-28T06:17:26.888Z,2068
2017-09-28T06:17:53.007Z,2084
2017-09-28T06:18:19.129Z,2096
2017-09-28T06:18:45.256Z,2100
2017-09-28T06:19:11.374Z,2092
2017-09-28T06:19:37.501Z,2084
2017-09-28T06:20:03.628Z,2080
2017-09-28T06:20:29.744Z,2076
2017-09-28T06:20:55.868Z,2080
2017-09-28T06:21:21.996Z,2084